Accueil
METAR-TAF:

METAR-TAF

Aéroports :

Aéroport international de Punta Cana

Punta Cana, République dominicaine

latitude: 18-34N, longitude: 068-22W, altitude: 12 m

Observation

Le bulletin a été fait il y a 1 heure et 5 minutes, à 22:00 UTC
Vent 8 kt de est
Température 30°C
Humidité 70%
Pression 1016 hPa
Visibilité 10 km ou plus
Nuages fragmentés à une hauteur de 2000 ft

METAR: MDPC 102200Z 09008KT 9999 BKN020 30/24 Q1016

Heure: 19:05 (23:05 UTC)

Prévision

Le bulletin a été fait il y a 7 heures et 5 minutes, à 16:00 UTC
Prévision valable du 10 à 18 UTC au 11 à 18 UTC
Vent 12 kt de est/nord-est
Visibilité 10 km ou plus
Nuages épars à une hauteur de 2200 ft
Probabilité 30%
du 10 à 18 UTC au 11 à 00 UTC
Visibilité: 8000 m
Nuages fragmentés à une hauteur de 1800 ft
Nuages épars à une hauteur de 8000 ft
pluie faible

TAF: MDPC 101600Z 1018/1118 06012KT 9999 SCT022 PROB30 1018/1100 8000 -RA BKN018 SCT080

Observations et prévisions météorologiques de plus de 4000 aéroports (messages METAR et TAF).

Les stations disponibles sont représentées par des disques jaunes et rouges sur la carte.

Passer la souris dessus pour voir le nom de la station.

Cliquer dessus pour voir les observations et prévisions météorologiques.

Pour changer de carte: cliquez sur les boutons verts avec une croix noire pour zoomer, sur le bouton vert avec un tiret pour effectuer un zoom arrière, ou sur les flèches vertes pour les cartes adjacentes.


METAR-TAF: